Time;durP1;ratioP1;P1;durP2;ratioP2;P2;SDS_P1;SDS_P2;PMS_P1;PMS_P2;Temp;Humidity;BMP_temperature;BMP_pressure;BME280_temperature;BME280_humidity;BME280_pressure;Samples;Min_cycle;Max_cycle;Signal;HPM_P1;HPM_P2
2022/04/08 00:02:15;;;;;;;4.68;1.05;;;;;;;6.18;75.53;97469.09;4988781;28;20050;-62
2022/04/08 00:04:52;;;;;;;2.13;0.88;;;;;;;6.19;75.68;97469.94;4994115;28;20061;-63
2022/04/08 00:07:28;;;;;;;5.18;1.02;;;;;;;6.20;75.40;97469.88;4994813;28;20065;-63
2022/04/08 00:09:59;;;;;;;1.83;0.77;;;;;;;6.23;75.10;97472.31;4977678;28;20135;-63
2022/04/08 00:12:31;;;;;;;2.45;0.98;;;;;;;6.29;75.39;97477.22;4976114;28;20117;-63
2022/04/08 00:15:00;;;;;;;3.60;0.90;;;;;;;6.25;75.17;97469.69;4993217;28;20069;-63
2022/04/08 00:17:28;;;;;;;2.28;0.60;;;;;;;6.29;75.12;97464.34;4988088;28;20141;-63
2022/04/08 00:19:58;;;;;;;1.20;0.80;;;;;;;6.31;75.36;97477.16;4982918;28;20503;-63
2022/04/08 00:22:29;;;;;;;1.15;0.60;;;;;;;6.31;75.51;97475.41;4989339;28;20058;-63
2022/04/08 00:25:06;;;;;;;2.70;0.85;;;;;;;6.23;75.00;97462.03;4989747;28;20416;-63
2022/04/08 00:27:49;;;;;;;3.00;1.23;;;;;;;6.28;75.11;97467.84;4977244;28;20057;-62
2022/04/08 00:30:20;;;;;;;2.88;0.90;;;;;;;6.32;75.52;97459.06;4994275;28;20078;-62
2022/04/08 00:32:51;;;;;;;3.03;1.13;;;;;;;6.32;75.47;97461.66;4987478;28;20046;-62
2022/04/08 00:35:21;;;;;;;2.20;0.98;;;;;;;6.35;75.10;97459.84;4992910;28;20058;-62
2022/04/08 00:37:50;;;;;;;2.67;1.05;;;;;;;6.31;75.13;97462.56;4981622;28;20478;-62
2022/04/08 00:40:19;;;;;;;2.60;0.90;;;;;;;6.31;74.78;97459.97;4974248;28;20396;-62
2022/04/08 00:43:13;;;;;;;3.15;1.05;;;;;;;6.28;74.57;97467.84;4994034;28;20068;-62
2022/04/08 00:45:43;;;;;;;1.02;0.60;;;;;;;6.29;74.34;97461.78;4994085;28;20086;-63
2022/04/08 00:48:10;;;;;;;1.48;0.70;;;;;;;6.30;74.21;97457.47;4987056;28;20056;-63
2022/04/08 00:50:41;;;;;;;1.60;1.10;;;;;;;6.32;74.06;97451.38;4984733;28;20057;-63
2022/04/08 00:53:18;;;;;;;2.40;1.33;;;;;;;6.33;73.87;97455.59;4974146;28;20423;-63
2022/04/08 00:55:44;;;;;;;2.35;1.00;;;;;;;6.37;73.98;97453.72;4974712;28;20055;-62
2022/04/08 00:58:15;;;;;;;2.33;0.95;;;;;;;6.35;74.10;97457.28;4974811;28;20046;-63
2022/04/08 01:00:43;;;;;;;1.33;0.80;;;;;;;6.36;73.91;97461.53;4982483;28;20042;-63
2022/04/08 01:03:24;;;;;;;2.00;0.82;;;;;;;6.35;74.22;97465.00;4987249;28;20476;-62
2022/04/08 01:05:52;;;;;;;1.23;0.88;;;;;;;6.28;74.61;97454.97;4981280;28;20047;-63
2022/04/08 01:08:29;;;;;;;2.63;1.00;;;;;;;6.29;74.45;97454.06;4977606;28;20066;-63
2022/04/08 01:11:00;;;;;;;1.35;0.80;;;;;;;6.25;74.31;97449.97;4993480;28;20046;-63
2022/04/08 01:13:42;;;;;;;2.28;0.90;;;;;;;6.25;73.66;97438.84;4993654;28;20066;-63
2022/04/08 01:16:12;;;;;;;2.42;1.08;;;;;;;6.19;74.61;97441.66;4993578;28;20494;-63
2022/04/08 01:18:44;;;;;;;1.85;0.90;;;;;;;6.19;74.41;97451.94;4994049;28;20113;-62
2022/04/08 01:21:12;;;;;;;2.80;0.82;;;;;;;6.18;74.52;97457.97;4987031;28;20751;-62
2022/04/08 01:23:44;;;;;;;3.10;0.93;;;;;;;6.16;74.33;97449.50;4975721;28;20129;-62
2022/04/08 01:26:16;;;;;;;3.88;1.00;;;;;;;6.16;74.83;97452.91;4974556;28;20050;-63
2022/04/08 01:28:52;;;;;;;3.45;1.00;;;;;;;6.18;74.58;97452.84;4974637;28;20059;-63
2022/04/08 01:31:29;;;;;;;2.83;1.25;;;;;;;6.19;74.82;97450.19;4988890;28;20360;-62
2022/04/08 01:33:57;;;;;;;1.65;0.90;;;;;;;6.21;75.04;97453.53;4993697;28;20486;-62
2022/04/08 01:36:24;;;;;;;3.03;1.02;;;;;;;6.18;74.81;97443.38;4987569;28;20050;-63
2022/04/08 01:38:55;;;;;;;2.28;1.10;;;;;;;6.20;74.71;97445.88;4982806;28;20646;-63
2022/04/08 01:41:31;;;;;;;3.10;1.27;;;;;;;6.24;75.02;97445.72;4988250;28;20047;-63
2022/04/08 01:44:01;;;;;;;2.20;1.20;;;;;;;6.25;74.67;97449.97;4993528;28;20058;-63
2022/04/08 01:46:29;;;;;;;3.17;0.98;;;;;;;6.27;74.61;97458.44;4993480;28;20094;-63
2022/04/08 01:48:59;;;;;;;2.10;0.85;;;;;;;6.29;74.51;97456.63;4993497;28;20057;-63
2022/04/08 01:51:29;;;;;;;2.00;0.98;;;;;;;6.32;74.52;97460.81;4992818;28;20463;-63
2022/04/08 01:53:59;;;;;;;4.45;1.10;;;;;;;6.28;74.12;97454.97;4993724;28;20058;-63
2022/04/08 01:56:39;;;;;;;5.95;1.48;;;;;;;6.33;73.43;97447.06;4993713;28;20054;-63
2022/04/08 01:59:10;;;;;;;3.05;1.08;;;;;;;6.30;73.65;97440.31;4989787;28;20058;-63
2022/04/08 02:01:40;;;;;;;3.03;0.95;;;;;;;6.22;73.73;97438.94;4985210;28;20062;-63
2022/04/08 02:04:09;;;;;;;2.33;0.90;;;;;;;6.20;74.05;97435.59;4994127;28;20054;-63
2022/04/08 02:06:45;;;;;;;2.25;0.90;;;;;;;6.14;74.30;97431.56;4996467;28;20077;-63
2022/04/08 02:09:13;;;;;;;1.70;1.00;;;;;;;6.08;74.43;97431.81;4996290;28;20081;-63
2022/04/08 02:11:55;;;;;;;4.90;1.10;;;;;;;6.05;74.87;97431.13;4995965;28;20782;-63
2022/04/08 02:14:23;;;;;;;3.35;1.20;;;;;;;5.97;74.62;97446.88;4996363;28;20061;-63
2022/04/08 02:16:53;;;;;;;2.90;1.35;;;;;;;5.95;74.34;97446.09;4995125;28;20065;-63
2022/04/08 02:19:24;;;;;;;2.28;1.00;;;;;;;5.91;74.53;97444.56;4984089;28;20061;-63
2022/04/08 02:21:55;;;;;;;2.40;1.10;;;;;;;5.82;75.09;97442.34;4993563;28;20133;-63
2022/04/08 02:24:23;;;;;;;3.58;1.13;;;;;;;5.86;74.60;97441.31;4996179;28;20113;-63
2022/04/08 02:26:55;;;;;;;2.08;1.17;;;;;;;5.85;74.85;97444.78;4996253;28;20082;-63
2022/04/08 02:29:23;;;;;;;1.88;0.90;;;;;;;5.83;75.52;97438.88;4996601;28;20086;-63
2022/04/08 02:31:57;;;;;;;3.47;1.10;;;;;;;5.84;75.54;97433.66;4994307;28;20506;-63
2022/04/08 02:34:28;;;;;;;3.80;1.10;;;;;;;5.79;75.43;97433.03;4984145;28;20065;-63
2022/04/08 02:37:03;;;;;;;2.03;1.30;;;;;;;5.85;75.05;97424.22;4996403;28;20054;-62
2022/04/08 02:39:33;;;;;;;2.38;1.15;;;;;;;5.86;75.22;97431.88;4977738;28;20137;-63
2022/04/08 02:42:04;;;;;;;1.70;1.15;;;;;;;5.84;75.01;97428.53;4988967;28;20054;-62
2022/04/08 02:44:32;;;;;;;1.75;1.10;;;;;;;5.88;75.23;97429.22;4996216;28;20052;-62
2022/04/08 02:47:02;;;;;;;3.00;1.15;;;;;;;5.80;74.97;97426.16;4995176;28;20054;-62
2022/04/08 02:49:32;;;;;;;1.85;1.00;;;;;;;5.76;75.25;97434.88;4989378;28;20058;-62
2022/04/08 02:54:43;;;;;;;3.25;1.08;;;;;;;5.71;75.47;97437.63;4977788;28;20062;-63
2022/04/08 02:57:19;;;;;;;2.45;1.20;;;;;;;5.70;75.10;97430.81;4996110;28;20086;-63
2022/04/08 02:59:50;;;;;;;1.25;0.80;;;;;;;5.69;75.62;97434.28;4995373;28;20054;-63
2022/04/08 03:02:26;;;;;;;2.38;0.90;;;;;;;5.70;75.72;97434.22;4995517;28;20058;-63
2022/04/08 03:04:53;;;;;;;2.55;1.30;;;;;;;5.68;75.90;97433.44;4995692;28;20459;-62
2022/04/08 03:07:21;;;;;;;1.50;1.00;;;;;;;5.67;76.09;97430.94;4984269;28;20059;-63
2022/04/08 03:09:51;;;;;;;2.08;1.00;;;;;;;5.68;76.24;97438.56;4983637;28;20058;-63
2022/04/08 03:12:32;;;;;;;1.92;1.05;;;;;;;5.63;77.12;97432.78;4990221;28;20085;-63
2022/04/08 03:15:01;;;;;;;2.58;0.80;;;;;;;5.63;77.24;97439.66;4994558;28;20058;-62
2022/04/08 03:17:31;;;;;;;3.42;1.25;;;;;;;5.60;77.60;97445.78;4995432;28;20054;-62
2022/04/08 03:20:01;;;;;;;2.53;0.98;;;;;;;5.63;77.68;97435.38;4995827;28;20086;-62
2022/04/08 03:22:31;;;;;;;3.95;1.45;;;;;;;5.64;78.05;97434.47;4995434;28;20483;-63
2022/04/08 03:24:58;;;;;;;2.70;1.55;;;;;;;5.60;78.39;97440.63;4995362;28;20511;-63
2022/04/08 03:27:41;;;;;;;3.78;1.58;;;;;;;5.55;78.30;97452.00;4992687;28;20109;-63
2022/04/08 03:30:15;;;;;;;4.68;1.50;;;;;;;5.55;78.75;97442.56;4988274;28;21274;-63
2022/04/08 03:32:51;;;;;;;3.63;1.30;;;;;;;5.59;78.64;97444.09;4976275;28;20095;-63
2022/04/08 03:35:23;;;;;;;2.03;1.30;;;;;;;5.52;79.69;97447.81;4984173;28;20467;-63
2022/04/08 03:37:51;;;;;;;2.95;1.48;;;;;;;5.52;79.64;97442.69;4995246;28;20050;-63
2022/04/08 03:40:21;;;;;;;2.83;1.50;;;;;;;5.49;80.28;97440.22;4994744;28;20061;-63
2022/04/08 03:42:56;;;;;;;2.78;1.30;;;;;;;5.50;80.18;97439.34;4995236;28;20137;-63
2022/04/08 03:45:25;;;;;;;7.60;2.00;;;;;;;5.55;80.19;97457.97;4995353;28;20399;-63
2022/04/08 03:47:55;;;;;;;2.50;1.50;;;;;;;5.56;80.05;97454.50;4994157;28;20491;-63
2022/04/08 03:50:25;;;;;;;2.97;1.48;;;;;;;5.56;80.40;97448.53;4982588;28;20054;-63
2022/04/08 03:52:55;;;;;;;2.00;1.30;;;;;;;5.58;80.52;97442.44;4989875;28;20054;-63
2022/04/08 03:55:23;;;;;;;2.65;1.60;;;;;;;5.61;80.62;97447.44;4975349;28;20139;-63
2022/04/08 03:58:00;;;;;;;2.75;1.25;;;;;;;5.60;80.73;97450.06;4979091;28;20050;-62
2022/04/08 04:00:28;;;;;;;3.53;1.55;;;;;;;5.62;81.26;97448.28;4994626;28;20078;-62
2022/04/08 04:02:59;;;;;;;1.60;1.20;;;;;;;5.64;81.90;97461.91;4994066;28;20132;-62
2022/04/08 04:05:29;;;;;;;3.20;1.77;;;;;;;5.64;82.54;97467.03;4983787;28;20082;-62
2022/04/08 04:08:00;;;;;;;3.78;1.65;;;;;;;5.64;82.76;97467.88;4986857;28;20062;-63
2022/04/08 04:13:13;;;;;;;3.28;1.60;;;;;;;5.60;83.12;97476.59;4981821;28;20062;-63
2022/04/08 04:15:43;;;;;;;2.10;1.40;;;;;;;5.64;83.07;97467.88;4994507;28;20659;-63
2022/04/08 04:18:13;;;;;;;1.40;1.00;;;;;;;5.57;81.98;97458.75;4978118;28;20339;-63
2022/04/08 04:20:43;;;;;;;1.60;1.10;;;;;;;5.60;81.70;97455.22;4983074;28;20050;-63
2022/04/08 04:23:13;;;;;;;1.60;0.80;;;;;;;5.56;80.59;97464.78;4984235;28;20606;-63
2022/04/08 04:28:31;;;;;;;1.90;1.00;;;;;;;5.55;80.29;97469.97;4981335;28;20498;-63
2022/04/08 04:31:04;;;;;;;1.38;0.77;;;;;;;5.53;79.57;97475.19;4994270;28;20054;-62
2022/04/08 04:33:41;;;;;;;2.20;0.80;;;;;;;5.58;80.00;97477.56;4976429;28;20058;-62
2022/04/08 04:36:11;;;;;;;1.10;0.80;;;;;;;5.54;79.64;97464.00;4989552;28;20053;-63
2022/04/08 04:38:40;;;;;;;1.98;0.70;;;;;;;5.58;79.75;97468.13;4976851;28;20395;-63
2022/04/08 04:41:10;;;;;;;1.00;0.60;;;;;;;5.56;79.89;97482.75;4986543;28;20046;-63
2022/04/08 04:43:41;;;;;;;1.67;0.70;;;;;;;5.63;79.54;97491.91;4994655;28;20073;-63
2022/04/08 04:46:09;;;;;;;2.53;0.75;;;;;;;5.59;79.59;97500.63;4994461;28;20068;-63
2022/04/08 04:48:39;;;;;;;2.97;1.38;;;;;;;5.63;79.94;97512.44;4990721;28;20104;-63
2022/04/08 04:51:07;;;;;;;2.08;0.90;;;;;;;5.64;80.30;97532.13;4985689;28;20069;-63
2022/04/08 04:53:37;;;;;;;1.60;0.77;;;;;;;5.66;80.23;97547.47;4985419;28;20069;-63
2022/04/08 04:56:08;;;;;;;2.05;0.82;;;;;;;5.71;80.74;97569.53;4994461;28;20054;-63
2022/04/08 04:58:36;;;;;;;3.10;1.02;;;;;;;5.74;80.39;97585.75;4977165;28;20472;-63
2022/04/08 05:01:11;;;;;;;0.95;0.40;;;;;;;5.71;80.10;97602.94;4985511;28;20054;-63
2022/04/08 05:03:39;;;;;;;1.15;0.52;;;;;;;5.59;78.10;97602.56;4994180;28;20062;-63
2022/04/08 05:06:08;;;;;;;1.08;0.50;;;;;;;5.43;77.73;97612.59;4993148;28;20052;-63
2022/04/08 05:08:38;;;;;;;0.70;0.38;;;;;;;5.28;75.35;97618.31;4986056;28;20149;-63
2022/04/08 05:11:05;;;;;;;1.83;0.55;;;;;;;5.24;75.23;97617.56;4993964;28;20050;-63
2022/04/08 05:13:32;;;;;;;1.15;0.50;;;;;;;5.17;74.90;97628.09;4978387;28;20062;-63
2022/04/08 05:16:02;;;;;;;4.35;0.60;;;;;;;5.13;75.09;97629.09;4984404;28;20062;-63
2022/04/08 05:18:31;;;;;;;1.52;0.45;;;;;;;5.11;73.84;97636.03;4989722;28;20086;-63
2022/04/08 05:21:00;;;;;;;0.95;0.55;;;;;;;5.05;73.04;97640.47;4985249;28;20391;-63
2022/04/08 05:26:08;;;;;;;1.17;0.50;;;;;;;5.04;74.19;97651.66;4982618;28;20057;-63
2022/04/08 05:28:37;;;;;;;4.10;0.88;;;;;;;5.11;73.98;97672.81;4986058;28;20054;-63
2022/04/08 05:31:07;;;;;;;2.03;0.60;;;;;;;5.13;73.86;97677.88;4993570;28;20054;-63
2022/04/08 05:33:49;;;;;;;1.98;0.47;;;;;;;5.16;74.01;97670.06;4993439;28;20082;-62
2022/04/08 05:36:19;;;;;;;2.72;0.57;;;;;;;5.08;73.52;97667.78;4981408;28;20051;-62
2022/04/08 05:38:57;;;;;;;3.75;0.52;;;;;;;5.09;72.28;97687.44;5001108;28;20050;-62
2022/04/08 05:41:24;;;;;;;2.28;0.57;;;;;;;5.11;72.73;97693.34;4992920;28;20054;-62
2022/04/08 05:43:54;;;;;;;7.45;1.00;;;;;;;5.07;72.43;97702.88;4987619;28;20055;-62
2022/04/08 05:46:22;;;;;;;5.97;1.75;;;;;;;5.06;71.94;97696.06;4997377;28;20056;-62
2022/04/08 05:48:56;;;;;;;2.33;0.73;;;;;;;5.00;72.00;97721.97;4997318;28;20054;-62
2022/04/08 05:51:26;;;;;;;1.95;0.52;;;;;;;5.04;71.59;97731.22;4997396;28;20057;-62
2022/04/08 05:53:54;;;;;;;2.58;0.65;;;;;;;4.89;72.46;97739.44;4997662;28;20078;-62
2022/04/08 05:56:24;;;;;;;1.58;0.45;;;;;;;4.85;72.11;97753.28;4997535;28;20050;-62
2022/04/08 05:58:52;;;;;;;2.22;0.38;;;;;;;4.83;72.00;97760.19;4996763;28;20467;-62
2022/04/08 06:01:22;;;;;;;1.42;0.43;;;;;;;4.99;72.54;97761.34;4986089;28;20055;-62
2022/04/08 06:04:07;;;;;;;1.38;0.40;;;;;;;5.39;71.08;97770.28;4990476;28;20093;-62
2022/04/08 06:06:38;;;;;;;5.43;0.80;;;;;;;5.73;70.59;97784.53;4990036;28;20060;-63
2022/04/08 06:09:06;;;;;;;2.33;0.47;;;;;;;5.87;69.41;97802.88;4984710;28;20149;-63
2022/04/08 06:11:36;;;;;;;4.25;1.17;;;;;;;5.95;69.20;97811.19;4982807;28;20487;-63
2022/04/08 06:14:06;;;;;;;1.33;0.50;;;;;;;6.03;69.35;97822.03;4977409;28;20058;-63
2022/04/08 06:16:36;;;;;;;1.40;0.60;;;;;;;5.85;68.58;97826.06;5002217;28;20053;-62
2022/04/08 06:19:06;;;;;;;2.83;0.60;;;;;;;5.85;68.61;97830.38;4994182;28;20132;-56
2022/04/08 06:21:34;;;;;;;5.60;1.85;;;;;;;5.67;70.27;97853.22;4985452;28;20173;-58
2022/04/08 06:24:02;;;;;;;9.65;3.35;;;;;;;5.65;71.11;97834.44;4995641;28;20050;-61
2022/04/08 06:26:32;;;;;;;8.43;2.80;;;;;;;5.51;70.82;97843.53;4995970;28;20069;-61
2022/04/08 06:29:04;;;;;;;7.13;0.80;;;;;;;5.49;70.63;97864.13;4993451;28;20134;-61
2022/04/08 06:31:35;;;;;;;2.83;0.70;;;;;;;5.51;70.57;97862.34;4988594;28;20425;-61
2022/04/08 06:34:03;;;;;;;1.90;0.88;;;;;;;5.28;71.41;97870.00;4991130;28;20447;-61
2022/04/08 06:36:32;;;;;;;3.72;1.00;;;;;;;5.30;70.79;97863.06;4984651;28;20066;-61
2022/04/08 06:39:08;;;;;;;6.10;1.40;;;;;;;5.21;70.42;97868.50;4988492;28;20077;-61
2022/04/08 06:41:34;;;;;;;4.82;1.00;;;;;;;5.24;70.66;97863.28;4987547;28;20494;-60
2022/04/08 06:44:12;;;;;;;3.33;1.17;;;;;;;5.21;69.98;97887.34;4992924;28;20058;-60
2022/04/08 06:46:40;;;;;;;4.28;1.00;;;;;;;5.25;69.74;97906.06;4995969;28;20133;-60
2022/04/08 06:49:08;;;;;;;3.28;0.73;;;;;;;5.18;67.83;97889.97;4995785;28;20061;-61
2022/04/08 06:51:48;;;;;;;4.32;0.80;;;;;;;5.23;67.52;97897.56;4995255;28;20502;-61
2022/04/08 06:54:17;;;;;;;5.30;0.80;;;;;;;5.27;66.07;97906.84;4989150;28;20054;-60
2022/04/08 06:56:47;;;;;;;3.17;1.00;;;;;;;5.36;65.43;97902.25;4995636;28;20051;-62
2022/04/08 06:59:15;;;;;;;4.95;1.08;;;;;;;5.69;65.57;97905.41;4991670;28;20054;-60
2022/04/08 07:01:43;;;;;;;4.05;0.85;;;;;;;6.22;65.48;97912.22;4995921;28;20048;-60
2022/04/08 07:04:12;;;;;;;4.18;1.10;;;;;;;6.84;63.01;97911.66;4988993;28;20069;-61
2022/04/08 07:06:49;;;;;;;2.30;0.90;;;;;;;7.57;60.25;97934.53;4989373;28;20050;-62
2022/04/08 07:09:19;;;;;;;5.63;1.15;;;;;;;8.17;57.91;97931.16;4995765;28;20050;-59
2022/04/08 07:11:47;;;;;;;3.58;0.60;;;;;;;8.57;55.33;97934.59;4995380;28;20452;-62
2022/04/08 07:14:16;;;;;;;4.28;0.68;;;;;;;8.54;53.72;97929.59;4994986;28;20116;-63
2022/04/08 07:16:47;;;;;;;3.47;0.95;;;;;;;8.91;53.75;97946.00;4995580;28;20069;-63
2022/04/08 07:19:15;;;;;;;4.82;1.05;;;;;;;9.17;53.82;97945.63;4995858;28;20046;-61
2022/04/08 07:21:51;;;;;;;3.55;1.05;;;;;;;9.28;51.97;97965.81;4995083;28;20050;-59
2022/04/08 07:24:27;;;;;;;4.05;0.93;;;;;;;9.47;51.60;97977.81;4995597;28;20058;-60
2022/04/08 07:26:57;;;;;;;3.13;0.73;;;;;;;9.47;52.16;97964.06;4997237;28;20050;-58
2022/04/08 07:29:27;;;;;;;4.13;0.80;;;;;;;8.77;52.18;97993.94;4998436;28;20093;-60
2022/04/08 07:34:43;;;;;;;1.75;0.68;;;;;;;8.33;53.37;98010.50;4995071;28;20069;-56
2022/04/08 07:37:16;;;;;;;4.40;0.95;;;;;;;8.14;54.08;98013.84;4990638;28;20423;-61
2022/04/08 07:39:46;;;;;;;5.00;0.90;;;;;;;7.94;55.47;98031.91;4994521;28;20443;-57
2022/04/08 07:42:13;;;;;;;3.97;1.45;;;;;;;7.86;56.08;98041.69;4994655;28;20046;-60
2022/04/08 07:44:44;;;;;;;7.13;0.98;;;;;;;7.88;56.10;98027.81;4994644;28;20085;-59
2022/04/08 07:49:57;;;;;;;5.55;0.90;;;;;;;8.26;55.14;98043.47;4994643;28;20057;-61
2022/04/08 07:52:28;;;;;;;5.53;1.10;;;;;;;8.89;54.82;98038.25;4995138;28;20054;-57
2022/04/08 07:54:58;;;;;;;2.70;0.80;;;;;;;9.15;54.95;98061.16;4994672;28;20065;-58
2022/04/08 07:57:28;;;;;;;7.90;1.25;;;;;;;9.36;53.39;98059.34;4991483;28;20141;-59
2022/04/08 08:00:06;;;;;;;3.83;0.80;;;;;;;9.39;52.77;98065.25;4994600;28;20166;-59
2022/04/08 08:02:37;;;;;;;4.10;0.80;;;;;;;9.29;52.42;98071.72;4984976;28;20106;-59
2022/04/08 08:05:13;;;;;;;2.35;0.68;;;;;;;9.07;52.88;98073.59;4994888;28;20058;-60
2022/04/08 08:08:05;;;;;;;4.03;1.15;;;;;;;9.07;51.90;98073.59;4994617;28;20060;-61
2022/04/08 08:10:36;;;;;;;6.40;1.42;;;;;;;9.23;52.45;98081.50;4974956;28;20100;-59
2022/04/08 08:13:08;;;;;;;8.18;1.20;;;;;;;9.41;52.58;98081.53;4999202;28;20054;-60
2022/04/08 08:15:41;;;;;;;4.28;0.90;;;;;;;9.38;51.67;98089.44;4995066;28;20073;-58
2022/04/08 08:18:09;;;;;;;5.75;0.95;;;;;;;9.10;52.53;98100.16;4994629;28;20074;-53
2022/04/08 08:20:38;;;;;;;3.53;1.10;;;;;;;9.14;52.23;98116.34;4993520;28;20050;-57
2022/04/08 08:23:20;;;;;;;4.82;1.00;;;;;;;8.89;51.85;98110.59;4976638;28;20042;-60
2022/04/08 08:25:47;;;;;;;6.38;1.25;;;;;;;8.73;53.26;98120.72;4994420;28;20116;-61
2022/04/08 08:28:15;;;;;;;3.70;1.27;;;;;;;8.97;53.16;98108.50;4994728;28;20125;-63
2022/04/08 08:30:50;;;;;;;2.50;1.08;;;;;;;9.22;53.18;98129.78;4992997;28;20050;-62
2022/04/08 08:33:20;;;;;;;3.33;1.08;;;;;;;9.71;50.69;98114.63;4978710;28;20495;-62
2022/04/08 08:35:49;;;;;;;5.68;1.40;;;;;;;9.99;48.59;98102.09;4993783;28;20510;-57
2022/04/08 08:38:30;;;;;;;7.63;1.48;;;;;;;9.75;47.40;98134.28;4994468;28;20057;-59
2022/04/08 08:41:00;;;;;;;6.35;1.42;;;;;;;9.81;46.35;98136.59;4993715;28;20046;-59
2022/04/08 08:43:43;;;;;;;7.88;1.45;;;;;;;9.89;46.85;98152.63;4994236;28;20046;-61
2022/04/08 08:46:20;;;;;;;4.25;1.20;;;;;;;9.88;47.22;98155.25;4992120;28;20058;-63
2022/04/08 08:48:55;;;;;;;6.57;1.02;;;;;;;9.61;45.41;98152.19;4994136;28;20082;-62
2022/04/08 08:51:27;;;;;;;5.03;1.03;;;;;;;9.54;45.55;98171.47;4993777;28;20731;-64
2022/04/08 08:53:56;;;;;;;10.65;1.77;;;;;;;9.31;45.80;98181.06;4976314;28;23059;-62
2022/04/08 08:56:34;;;;;;;6.47;1.27;;;;;;;9.27;46.40;98195.03;4992827;28;20039;-58
2022/04/08 08:59:02;;;;;;;5.60;1.17;;;;;;;9.03;47.60;98190.94;4988429;28;20054;-55
2022/04/08 09:01:30;;;;;;;9.20;1.50;;;;;;;9.08;48.87;98199.31;4988944;28;20042;-57
2022/04/08 09:03:59;;;;;;;4.60;1.15;;;;;;;8.79;49.74;98193.59;4989132;28;20050;-55
2022/04/08 09:06:43;;;;;;;5.25;1.27;;;;;;;8.93;49.85;98212.88;4999409;28;20141;-58
2022/04/08 09:09:19;;;;;;;12.88;1.35;;;;;;;8.93;49.97;98230.97;4993926;28;20050;-60
2022/04/08 09:11:49;;;;;;;7.95;1.38;;;;;;;8.98;50.73;98232.47;4993453;28;20137;-58
2022/04/08 09:14:30;;;;;;;6.85;1.65;;;;;;;8.98;51.11;98218.69;4992544;28;20058;-55
2022/04/08 09:17:04;;;;;;;5.35;1.20;;;;;;;8.85;50.55;98246.78;4993620;28;20050;-58
2022/04/08 09:19:37;;;;;;;7.30;1.50;;;;;;;8.75;50.49;98243.72;4993916;28;20078;-57
2022/04/08 09:22:13;;;;;;;5.43;1.40;;;;;;;8.76;49.76;98247.13;4994197;28;20061;-57
2022/04/08 09:24:49;;;;;;;8.18;1.50;;;;;;;8.70;49.75;98245.66;4993751;28;20050;-56
2022/04/08 09:27:17;;;;;;;;;;;;;;;8.69;50.22;98259.47;4993838;28;20076;-56
2022/04/08 09:29:59;;;;;;;4.65;1.73;;;;;;;8.61;50.43;98266.66;4993193;28;19936;-59
2022/04/08 09:35:17;;;;;;;5.35;0.85;;;;;;;8.49;48.07;98272.31;4989763;28;20054;-59
2022/04/08 09:38:01;;;;;;;5.13;1.00;;;;;;;8.42;47.61;98292.38;4992998;28;20042;-58
2022/04/08 09:40:47;;;;;;;4.78;1.33;;;;;;;8.39;48.49;98302.81;4993730;28;20451;-55
2022/04/08 09:43:14;;;;;;;7.45;1.27;;;;;;;8.49;48.44;98295.56;4993504;28;20074;-58
2022/04/08 09:45:46;;;;;;;9.18;1.60;;;;;;;8.63;48.36;98295.84;4991082;28;20078;-59
2022/04/08 09:48:17;;;;;;;8.38;1.55;;;;;;;8.69;47.16;98316.28;4988723;28;20072;-57
2022/04/08 09:50:51;;;;;;;7.50;1.88;;;;;;;8.68;45.36;98314.59;4993396;28;20068;-61
2022/04/08 09:53:27;;;;;;;6.55;1.33;;;;;;;8.57;45.58;98316.75;4993195;28;20063;-63
2022/04/08 09:56:18;;;;;;;5.00;1.90;;;;;;;8.76;46.45;98322.88;4987951;28;20061;-58
2022/04/08 09:58:55;;;;;;;13.93;2.10;;;;;;;8.80;46.45;98324.44;4993487;28;20152;-61
2022/04/08 10:01:28;;;;;;;6.75;1.20;;;;;;;8.90;45.22;98343.03;4993535;28;20124;-60
2022/04/08 10:04:04;;;;;;;8.55;1.60;;;;;;;8.95;44.05;98340.25;4985638;28;20047;-59
2022/04/08 10:06:33;;;;;;;7.03;1.70;;;;;;;8.87;42.93;98339.72;4993170;28;20073;-59
2022/04/08 10:09:15;;;;;;;8.45;1.55;;;;;;;8.85;43.74;98348.38;4992594;28;20089;-60
2022/04/08 10:12:00;;;;;;;8.45;1.50;;;;;;;8.81;40.11;98358.88;4993211;28;20143;-57
2022/04/08 10:14:59;;;;;;;7.88;2.15;;;;;;;8.84;40.99;98356.16;4993071;28;20054;-58
2022/04/08 10:20:28;;;;;;;11.80;2.55;;;;;;;8.79;39.55;98374.44;4993566;28;20068;-57
2022/04/08 10:23:05;;;;;;;7.07;1.27;;;;;;;8.85;39.82;98365.63;4992846;28;20054;-58
2022/04/08 10:25:50;;;;;;;7.82;1.45;;;;;;;8.99;39.75;98365.91;4986871;28;20472;-56
2022/04/08 10:28:31;;;;;;;6.45;1.10;;;;;;;9.11;40.42;98385.25;4987755;28;20050;-61
2022/04/08 10:31:02;;;;;;;5.50;1.33;;;;;;;9.21;39.69;98381.41;4990688;28;20054;-57
2022/04/08 10:33:43;;;;;;;6.82;1.10;;;;;;;9.35;39.47;98389.44;4993796;28;20117;-57
2022/04/08 10:36:25;;;;;;;5.88;0.90;;;;;;;9.44;38.96;98389.09;4996493;28;20046;-57
2022/04/08 10:39:15;;;;;;;5.47;1.17;;;;;;;9.68;37.98;98401.91;4995813;28;20129;-56
2022/04/08 10:41:51;;;;;;;4.93;1.10;;;;;;;9.85;38.19;98394.28;4996496;28;20472;-56
2022/04/08 10:44:35;;;;;;;5.65;1.17;;;;;;;10.09;38.36;98416.53;4996814;28;20104;-57
2022/04/08 10:47:21;;;;;;;7.45;1.73;;;;;;;10.26;36.61;98410.66;4996769;28;20062;-58
2022/04/08 10:50:04;;;;;;;10.13;1.45;;;;;;;10.38;36.54;98404.09;4985849;28;20046;-57
2022/04/08 10:52:42;;;;;;;6.82;1.50;;;;;;;10.56;36.86;98405.88;4986679;28;20455;-57
2022/04/08 10:55:19;;;;;;;4.90;1.00;;;;;;;10.64;35.39;98410.72;4997225;28;20050;-58
2022/04/08 10:58:00;;;;;;;6.07;1.30;;;;;;;10.69;36.05;98414.78;4993246;28;20475;-60
2022/04/08 11:00:41;;;;;;;5.22;1.15;;;;;;;10.98;35.85;98426.41;4998909;28;20062;-61
2022/04/08 11:03:18;;;;;;;9.05;1.77;;;;;;;11.25;35.68;98426.84;4986943;28;20046;-62
2022/04/08 11:05:48;;;;;;;4.53;1.02;;;;;;;11.42;35.10;98430.38;4997729;28;20069;-52
2022/04/08 11:08:25;;;;;;;7.53;1.23;;;;;;;11.50;35.07;98436.06;4996105;28;20136;-60
2022/04/08 11:11:09;;;;;;;6.15;1.15;;;;;;;11.45;33.95;98430.28;4996432;28;20058;-62
2022/04/08 11:13:41;;;;;;;5.20;1.10;;;;;;;11.50;34.58;98434.31;4996469;28;20116;-62
2022/04/08 11:16:12;;;;;;;5.95;1.20;;;;;;;11.54;35.16;98424.63;4996342;28;20069;-63
2022/04/08 11:18:49;;;;;;;5.22;1.23;;;;;;;11.62;33.93;98422.50;4993390;28;20047;-61
2022/04/08 11:21:19;;;;;;;10.07;1.45;;;;;;;11.47;32.86;98433.63;4996255;28;20169;-60
2022/04/08 11:24:00;;;;;;;7.82;2.00;;;;;;;11.50;33.15;98446.44;4996862;28;20054;-62
2022/04/08 11:26:37;;;;;;;7.90;1.55;;;;;;;11.47;33.14;98459.56;4980101;28;20534;-62
2022/04/08 11:29:15;;;;;;;8.05;1.38;;;;;;;11.56;33.28;98459.13;4995359;28;20050;-62
2022/04/08 11:31:50;;;;;;;4.25;1.10;;;;;;;11.48;33.95;98451.72;4992490;28;20487;-59
2022/04/08 11:34:22;;;;;;;3.65;0.93;;;;;;;11.19;33.09;98466.03;4993868;28;20085;-61
2022/04/08 11:36:54;;;;;;;8.05;1.23;;;;;;;11.00;33.68;98465.22;4993830;28;20046;-58
2022/04/08 11:39:30;;;;;;;4.15;0.85;;;;;;;10.71;34.06;98480.31;4991752;28;20076;-62
2022/04/08 11:41:59;;;;;;;3.88;0.98;;;;;;;10.67;34.35;98489.13;4996647;28;20055;-58
2022/04/08 11:44:30;;;;;;;4.28;1.05;;;;;;;10.47;34.72;98485.75;4994142;28;20507;-59
2022/04/08 11:47:11;;;;;;;8.60;1.25;;;;;;;10.31;35.28;98486.38;4978575;28;20050;-58
2022/04/08 11:49:42;;;;;;;8.32;2.25;;;;;;;10.32;35.64;98488.06;4993986;28;20498;-60
2022/04/08 11:52:12;;;;;;;12.00;1.58;;;;;;;10.29;35.19;98492.53;4995775;28;20160;-57
2022/04/08 11:54:42;;;;;;;8.38;1.20;;;;;;;10.12;35.73;98501.84;4995158;28;20050;-57
2022/04/08 11:57:12;;;;;;;4.00;1.10;;;;;;;10.12;36.38;98507.00;4995393;28;20130;-56
2022/04/08 11:59:48;;;;;;;7.50;1.70;;;;;;;10.16;35.72;98501.69;4989391;28;20052;-58
2022/04/08 12:02:28;;;;;;;8.43;1.70;;;;;;;10.21;35.92;98510.16;4993928;28;20124;-56
2022/04/08 12:04:56;;;;;;;5.05;1.02;;;;;;;10.26;36.55;98503.03;4995161;28;20054;-56
2022/04/08 12:07:29;;;;;;;6.07;1.60;;;;;;;10.31;36.02;98508.84;4991803;28;20065;-56
2022/04/08 12:10:06;;;;;;;6.43;1.17;;;;;;;10.29;36.19;98492.53;4994244;28;20046;-58
2022/04/08 12:12:37;;;;;;;9.30;1.63;;;;;;;10.35;37.53;98477.56;4994915;28;20137;-56
2022/04/08 12:15:09;;;;;;;3.13;0.98;;;;;;;10.43;36.66;98495.41;4994249;28;20124;-57
2022/04/08 12:17:55;;;;;;;7.30;1.15;;;;;;;10.40;36.28;98483.44;4977398;28;20050;-54
2022/04/08 12:20:24;;;;;;;5.65;1.15;;;;;;;10.54;36.84;98500.97;4994286;28;20383;-58
2022/04/08 12:22:52;;;;;;;6.88;1.23;;;;;;;10.62;36.04;98506.66;4995096;28;20140;-60
2022/04/08 12:25:22;;;;;;;7.47;1.25;;;;;;;10.58;36.42;98499.91;4994334;28;20057;-61
2022/04/08 12:27:59;;;;;;;10.25;1.40;;;;;;;10.61;36.25;98504.97;4994822;28;20141;-59
2022/04/08 12:30:36;;;;;;;6.63;1.50;;;;;;;10.72;37.00;98517.44;4994502;28;20149;-59